Time;durP1;ratioP1;P1;durP2;ratioP2;P2;SDS_P1;SDS_P2;PMS_P1;PMS_P2;Temp;Humidity;BMP_temperature;BMP_pressure;BME280_temperature;BME280_humidity;BME280_pressure;Samples;Min_cycle;Max_cycle;Signal;HPM_P1;HPM_P2
2022/04/02 00:01:39;;;;;;;4.63;3.00;;;;;;;3.39;52.97;98991.47;4822438;29;20089;-83
2022/04/02 00:04:09;;;;;;;5.47;2.95;;;;;;;3.23;52.84;98980.22;4853003;29;20128;-84
2022/04/02 00:06:36;;;;;;;5.32;3.30;;;;;;;3.13;53.29;98955.28;4843038;29;20042;-82
2022/04/02 00:09:03;;;;;;;6.38;3.50;;;;;;;3.07;53.63;98958.69;4867061;29;20065;-82
2022/04/02 00:11:29;;;;;;;4.60;3.08;;;;;;;3.04;53.92;98960.34;4865843;29;20487;-82
2022/04/02 00:13:56;;;;;;;6.45;3.17;;;;;;;3.08;53.66;98974.94;4843007;29;20429;-80
2022/04/02 00:16:22;;;;;;;4.28;3.10;;;;;;;2.87;54.29;98948.22;4849731;29;20124;-83
2022/04/02 00:18:51;;;;;;;6.55;3.30;;;;;;;3.01;54.95;98980.03;4848660;29;20043;-80
2022/04/02 00:21:18;;;;;;;6.10;3.40;;;;;;;2.98;54.87;98985.16;4848274;29;20076;-82
2022/04/02 00:23:44;;;;;;;6.32;3.17;;;;;;;2.86;55.20;98957.66;4866094;29;20635;-81
2022/04/02 00:26:11;;;;;;;5.60;3.28;;;;;;;2.99;55.50;98975.75;4863176;29;20046;-82
2022/04/02 00:28:39;;;;;;;6.25;3.22;;;;;;;2.96;55.07;98968.88;4848885;29;20084;-82
2022/04/02 00:31:09;;;;;;;5.95;3.55;;;;;;;2.79;55.61;98924.16;4849862;29;20048;-82
2022/04/02 00:33:37;;;;;;;5.40;3.15;;;;;;;2.99;55.98;98950.88;4864740;29;20041;-83
2022/04/02 00:36:04;;;;;;;7.60;3.80;;;;;;;3.00;56.46;98955.19;4832851;29;20045;-82
2022/04/02 00:38:30;;;;;;;5.57;3.13;;;;;;;2.90;56.51;98932.84;4865291;29;20093;-81
2022/04/02 00:40:56;;;;;;;4.43;3.15;;;;;;;2.87;56.26;98925.09;4852433;29;20026;-83
2022/04/02 00:43:27;;;;;;;5.78;3.60;;;;;;;2.91;56.11;98942.28;4871631;29;20116;-81
2022/04/02 00:45:54;;;;;;;5.40;3.45;;;;;;;2.65;56.03;98906.94;4874725;29;20138;-81
2022/04/02 00:48:21;;;;;;;5.75;4.10;;;;;;;2.73;56.56;98932.69;4867687;29;20221;-82
2022/04/02 00:50:55;;;;;;;6.13;3.72;;;;;;;2.74;57.00;98933.56;4873625;29;20049;-84
2022/04/02 00:53:24;;;;;;;4.35;3.50;;;;;;;2.76;57.53;98935.28;4851562;29;20052;-82
2022/04/02 00:55:51;;;;;;;4.82;3.38;;;;;;;2.59;57.59;98913.72;4864576;29;20045;-81
2022/04/02 00:58:17;;;;;;;7.90;4.10;;;;;;;2.54;57.56;98893.09;4816433;29;20372;-82
2022/04/02 01:00:45;;;;;;;6.53;3.63;;;;;;;2.63;57.33;98911.19;4863268;29;20527;-82
2022/04/02 01:03:14;;;;;;;6.22;3.72;;;;;;;2.67;58.09;98910.38;4862400;29;20510;-81
2022/04/02 01:05:44;;;;;;;5.95;4.10;;;;;;;2.61;57.69;98901.75;4845111;29;20049;-81
2022/04/02 01:08:11;;;;;;;7.03;4.20;;;;;;;2.57;58.22;98900.84;4860030;29;20067;-82
2022/04/02 01:10:41;;;;;;;7.20;3.72;;;;;;;2.53;58.19;98894.81;4830199;29;20065;-82
2022/04/02 01:13:09;;;;;;;5.70;3.90;;;;;;;2.39;58.32;98886.16;4863003;29;20042;-82
2022/04/02 01:15:38;;;;;;;5.63;3.80;;;;;;;2.46;58.16;98897.34;4863286;29;20049;-81
2022/04/02 01:18:09;;;;;;;4.45;3.30;;;;;;;2.11;57.93;98839.66;4846874;29;20042;-81
2022/04/02 01:20:37;;;;;;;6.20;4.18;;;;;;;2.28;57.99;98869.75;4815932;29;20057;-83
2022/04/02 01:23:03;;;;;;;5.78;3.75;;;;;;;2.45;58.14;98890.47;4862706;29;20588;-82
2022/04/02 01:25:37;;;;;;;6.40;3.97;;;;;;;2.41;58.31;98895.56;4835181;29;20421;-82
2022/04/02 01:28:11;;;;;;;6.35;4.00;;;;;;;2.31;58.44;98867.22;4862524;29;20037;-82
2022/04/02 01:30:38;;;;;;;6.43;4.10;;;;;;;2.31;58.11;98862.97;4835038;29;20061;-83
2022/04/02 01:33:04;;;;;;;7.13;4.30;;;;;;;2.30;57.87;98862.94;4852208;29;20078;-80
2022/04/02 01:35:31;;;;;;;6.63;4.20;;;;;;;2.32;57.67;98862.09;4834039;29;20042;-81
2022/04/02 01:38:13;;;;;;;6.57;4.22;;;;;;;2.42;57.90;98886.19;4831160;29;20130;-82
2022/04/02 01:40:39;;;;;;;5.38;3.53;;;;;;;2.08;58.17;98829.34;4872888;29;20045;-83
2022/04/02 01:43:08;;;;;;;5.18;4.10;;;;;;;2.39;57.54;98879.28;4875972;29;20053;-82
2022/04/02 01:45:36;;;;;;;6.43;4.10;;;;;;;2.21;57.33;98866.28;4866565;29;20144;-82
2022/04/02 01:48:04;;;;;;;6.93;4.47;;;;;;;2.40;57.20;98893.00;4848647;29;20169;-80
2022/04/02 01:50:42;;;;;;;5.60;3.90;;;;;;;2.35;57.77;98881.81;4840427;29;20458;-82
2022/04/02 01:53:08;;;;;;;6.43;4.03;;;;;;;2.41;57.82;98877.59;4865857;29;20050;-84
2022/04/02 01:55:34;;;;;;;5.82;4.05;;;;;;;2.35;57.54;98864.69;4850813;29;20045;-83
2022/04/02 01:58:20;;;;;;;7.25;3.65;;;;;;;2.41;57.17;98869.91;4848387;29;20223;-81
2022/04/02 02:00:47;;;;;;;5.40;3.70;;;;;;;2.39;57.42;98861.31;4833279;29;20270;-82
2022/04/02 02:03:17;;;;;;;5.13;3.60;;;;;;;2.45;57.36;98852.78;4823056;29;20081;-82
2022/04/02 02:05:44;;;;;;;4.97;3.65;;;;;;;2.36;57.49;98848.44;4845402;29;20494;-81
2022/04/02 02:08:10;;;;;;;6.22;3.75;;;;;;;2.44;57.31;98852.78;4861939;29;20045;-83
2022/04/02 02:10:56;;;;;;;4.50;3.28;;;;;;;2.49;56.87;98859.69;4846971;29;20429;-82
2022/04/02 02:13:46;;;;;;;5.40;3.42;;;;;;;2.43;57.22;98833.94;4859761;29;20042;-81
2022/04/02 02:16:17;;;;;;;5.78;3.60;;;;;;;2.34;57.23;98829.59;4855827;29;20038;-80
2022/04/02 02:18:43;;;;;;;4.40;3.17;;;;;;;2.42;56.80;98839.97;4889193;29;20056;-81
2022/04/02 02:21:08;;;;;;;6.53;3.28;;;;;;;2.47;56.86;98834.84;4894207;29;20057;-82
2022/04/02 02:23:34;;;;;;;4.55;3.10;;;;;;;2.48;56.94;98832.28;4871993;29;20037;-84
2022/04/02 02:26:00;;;;;;;6.13;3.55;;;;;;;2.59;56.34;98828.97;4870082;29;20045;-80
2022/04/02 02:28:26;;;;;;;5.45;3.10;;;;;;;2.60;56.58;98849.50;4881278;29;20057;-83
2022/04/02 02:30:55;;;;;;;4.68;3.10;;;;;;;2.68;56.22;98863.28;4881739;29;20119;-82
2022/04/02 02:36:07;;;;;;;4.90;3.28;;;;;;;2.43;56.61;98866.47;4881262;29;20077;-84
2022/04/02 02:38:46;;;;;;;6.30;3.67;;;;;;;2.37;56.17;98868.13;4865929;29;20140;-83
2022/04/02 02:41:18;;;;;;;6.85;3.20;;;;;;;2.33;56.94;98852.69;4852024;29;20098;-82
2022/04/02 02:43:50;;;;;;;;;;;;;;;2.45;56.85;98870.78;4884473;29;20060;-81
2022/04/02 02:46:26;;;;;;;4.00;2.67;;;;;;;2.38;57.24;98856.19;4846513;29;19928;-81
2022/04/02 02:48:59;;;;;;;5.45;3.10;;;;;;;2.22;55.39;98862.88;4893250;29;20049;-82
2022/04/02 02:51:26;;;;;;;4.95;3.53;;;;;;;2.11;56.18;98888.44;4853360;29;20100;-82
2022/04/02 02:53:53;;;;;;;5.88;4.05;;;;;;;2.05;56.81;98885.78;4880879;29;20069;-80
2022/04/02 02:56:19;;;;;;;5.32;3.80;;;;;;;2.11;57.10;98881.56;4850192;29;20276;-80
2022/04/02 02:58:48;;;;;;;9.95;5.40;;;;;;;2.14;56.95;98879.88;4879282;29;20384;-80
2022/04/02 03:01:16;;;;;;;8.57;5.38;;;;;;;2.22;56.90;98878.28;4860887;29;20045;-80
2022/04/02 03:03:42;;;;;;;5.75;3.75;;;;;;;2.09;56.74;98862.75;4872651;29;20049;-81
2022/04/02 03:06:13;;;;;;;5.15;3.47;;;;;;;2.20;57.32;98885.09;4863844;29;20049;-81
2022/04/02 03:08:42;;;;;;;4.68;3.30;;;;;;;1.94;56.81;98857.44;4857989;29;20584;-80
2022/04/02 03:11:09;;;;;;;5.65;3.88;;;;;;;2.14;56.92;98885.91;4879169;29;20049;-79
2022/04/02 03:13:38;;;;;;;5.10;3.33;;;;;;;1.92;56.81;98874.53;4860696;29;20045;-82
2022/04/02 03:16:07;;;;;;;6.07;4.03;;;;;;;1.89;57.76;98859.97;4866554;29;20046;-81
2022/04/02 03:18:36;;;;;;;5.20;3.55;;;;;;;2.04;57.74;98879.81;4879749;29;20048;-83
2022/04/02 03:21:07;;;;;;;6.50;3.60;;;;;;;1.71;58.41;98847.78;4860767;29;20056;-82
2022/04/02 03:23:33;;;;;;;5.88;3.42;;;;;;;1.89;58.12;98869.34;4850055;29;20097;-82
2022/04/02 03:26:01;;;;;;;6.57;3.22;;;;;;;1.96;58.50;98871.16;4877235;29;20534;-81
2022/04/02 03:28:30;;;;;;;5.55;3.67;;;;;;;1.91;58.96;98847.13;4848431;29;20057;-83
2022/04/02 03:30:56;;;;;;;4.35;3.25;;;;;;;1.80;58.50;98824.81;4833516;29;20057;-80
2022/04/02 03:33:23;;;;;;;4.47;3.20;;;;;;;1.91;58.76;98839.44;4861344;29;20408;-82
2022/04/02 03:35:50;;;;;;;4.32;2.97;;;;;;;1.82;59.50;98836.78;4847041;29;20078;-80
2022/04/02 03:38:16;;;;;;;5.57;3.70;;;;;;;1.72;59.64;98838.41;4849520;29;20096;-82
2022/04/02 03:40:45;;;;;;;5.30;3.20;;;;;;;1.80;60.03;98847.03;4879906;29;20732;-80
2022/04/02 03:43:12;;;;;;;8.23;3.67;;;;;;;1.73;58.77;98852.94;4882982;29;20053;-82
2022/04/02 03:45:38;;;;;;;5.70;3.25;;;;;;;1.70;60.05;98848.63;4821529;29;20060;-80
2022/04/02 03:48:06;;;;;;;5.40;3.83;;;;;;;1.75;59.82;98852.09;4863996;29;20069;-82
2022/04/02 03:50:39;;;;;;;5.85;3.47;;;;;;;1.83;59.78;98856.47;4880907;29;20548;-80
2022/04/02 03:53:07;;;;;;;5.95;3.65;;;;;;;1.84;60.08;98840.25;4880208;29;20080;-82
2022/04/02 03:55:38;;;;;;;5.85;3.67;;;;;;;2.01;60.78;98854.09;4848676;29;20049;-78
2022/04/02 03:58:15;;;;;;;5.68;3.60;;;;;;;2.01;60.56;98860.91;4861748;29;20173;-82
2022/04/02 04:00:42;;;;;;;10.05;3.63;;;;;;;1.94;60.59;98855.75;4867187;29;20462;-81
2022/04/02 04:03:10;;;;;;;6.63;3.78;;;;;;;1.80;60.62;98859.84;4848164;29;20621;-81
2022/04/02 04:05:43;;;;;;;5.40;3.65;;;;;;;1.89;60.84;98856.50;4835894;29;20064;-82
2022/04/02 04:08:11;;;;;;;4.80;3.40;;;;;;;2.02;60.75;98868.66;4846647;29;20049;-81
2022/04/02 04:10:40;;;;;;;7.82;3.85;;;;;;;2.08;61.24;98871.31;4849914;29;20072;-82
2022/04/02 04:13:06;;;;;;;5.28;3.25;;;;;;;2.10;60.36;98884.13;4891364;29;20042;-80
2022/04/02 04:15:34;;;;;;;5.38;3.00;;;;;;;2.10;61.06;98872.16;4870100;29;20121;-82
2022/04/02 04:18:03;;;;;;;6.13;3.65;;;;;;;1.87;61.18;98850.53;4862768;29;20053;-83
2022/04/02 04:20:32;;;;;;;4.88;3.28;;;;;;;1.76;61.18;98843.56;4866211;29;20081;-81
2022/04/02 04:23:00;;;;;;;5.40;3.40;;;;;;;1.89;60.94;98843.69;4847248;29;20539;-83
2022/04/02 04:25:28;;;;;;;6.10;4.20;;;;;;;1.96;61.55;98842.91;4847925;29;20046;-83
2022/04/02 04:27:55;;;;;;;6.47;3.97;;;;;;;2.08;61.21;98857.59;4849018;29;20052;-82
2022/04/02 04:30:22;;;;;;;5.97;4.10;;;;;;;2.20;61.30;98859.41;4850295;29;20061;-81
2022/04/02 04:32:49;;;;;;;6.90;4.10;;;;;;;2.17;61.66;98837.16;4892707;29;20037;-82
2022/04/02 04:35:14;;;;;;;6.13;4.03;;;;;;;2.15;61.13;98828.59;4852205;29;20060;-82
2022/04/02 04:37:40;;;;;;;5.15;3.80;;;;;;;2.22;60.78;98839.75;4854744;29;20037;-81
2022/04/02 04:40:13;;;;;;;;;;;;;;;2.25;61.07;98840.63;4898542;29;20066;-83
2022/04/02 04:42:41;;;;;;;6.13;3.72;;;;;;;2.17;61.53;98818.31;4849401;29;20000;-80
2022/04/02 04:45:10;;;;;;;7.57;3.60;;;;;;;2.27;61.63;98822.69;4877871;29;20069;-84
2022/04/02 04:47:44;;;;;;;6.40;3.92;;;;;;;2.31;61.37;98803.03;4880296;29;20052;-82
2022/04/02 04:50:10;;;;;;;6.68;3.63;;;;;;;2.24;60.92;98808.09;4864675;29;20052;-84
2022/04/02 04:52:37;;;;;;;6.35;4.07;;;;;;;2.36;61.73;98820.19;4849740;29;20067;-81
2022/04/02 04:55:05;;;;;;;5.47;3.83;;;;;;;2.29;61.48;98808.19;4879313;29;20053;-82
2022/04/02 04:57:32;;;;;;;6.45;3.83;;;;;;;2.47;61.38;98829.72;4866388;29;20447;-81
2022/04/02 05:00:08;;;;;;;7.13;3.75;;;;;;;2.47;61.30;98828.00;4859970;29;20084;-82
2022/04/02 05:02:35;;;;;;;6.13;3.65;;;;;;;2.18;62.01;98768.69;4865805;29;20045;-83
2022/04/02 05:05:05;;;;;;;7.57;3.97;;;;;;;2.62;61.75;98834.97;4865419;29;20254;-84
2022/04/02 05:07:32;;;;;;;6.88;3.75;;;;;;;2.21;61.09;98769.56;4877079;29;20049;-81
2022/04/02 05:10:54;;;;;;;10.75;4.25;;;;;;;2.20;61.02;98800.38;5098498;27;20415;-84
2022/04/02 05:13:28;;;;;;;6.85;3.72;;;;;;;2.45;62.30;98823.69;5075648;28;20036;-81
2022/04/02 05:15:56;;;;;;;7.85;4.95;;;;;;;2.52;61.45;98821.19;5060068;28;20050;-81
2022/04/02 05:18:26;;;;;;;7.78;3.72;;;;;;;2.44;62.12;98786.03;5056731;28;20075;-82
2022/04/02 05:20:53;;;;;;;5.50;3.75;;;;;;;2.44;61.83;98802.28;5032369;28;20067;-80
2022/04/02 05:23:20;;;;;;;6.40;4.25;;;;;;;2.60;61.80;98808.41;5057977;28;20187;-84
2022/04/02 05:25:50;;;;;;;7.32;3.90;;;;;;;2.73;61.60;98818.78;5078976;28;20082;-81
2022/04/02 05:28:17;;;;;;;7.13;3.90;;;;;;;2.79;61.82;98814.53;5073654;28;21003;-84
2022/04/02 05:30:43;;;;;;;6.07;4.10;;;;;;;2.62;62.00;98793.03;5072352;28;20109;-81
2022/04/02 05:33:09;;;;;;;5.43;3.83;;;;;;;2.78;61.39;98819.66;5091834;28;20048;-83
2022/04/02 05:35:36;;;;;;;7.68;3.97;;;;;;;2.77;61.95;98794.81;5057341;28;20036;-83
2022/04/02 05:38:02;;;;;;;6.78;4.40;;;;;;;2.95;62.05;98810.38;5066580;28;20054;-83
2022/04/02 05:40:28;;;;;;;7.45;4.80;;;;;;;3.00;61.82;98794.97;5059532;28;20469;-84
2022/04/02 05:42:54;;;;;;;6.28;3.92;;;;;;;3.20;61.48;98801.94;5091224;28;20458;-82
2022/04/02 05:45:20;;;;;;;6.20;4.07;;;;;;;3.07;61.44;98763.31;5053026;28;20131;-82
2022/04/02 05:47:51;;;;;;;5.00;3.60;;;;;;;3.16;61.52;98791.63;5056843;28;20553;-81
2022/04/02 05:50:19;;;;;;;5.97;3.95;;;;;;;3.28;61.96;98803.69;5078401;28;20062;-82
2022/04/02 05:52:49;;;;;;;6.45;4.28;;;;;;;2.94;61.78;98764.97;5064470;28;20598;-82
2022/04/02 05:55:19;;;;;;;7.38;4.15;;;;;;;3.21;62.13;98783.06;5073177;28;20040;-81
2022/04/02 05:57:46;;;;;;;7.53;4.57;;;;;;;3.13;60.56;98767.63;5060416;28;20100;-81
2022/04/02 06:00:15;;;;;;;7.15;4.43;;;;;;;3.27;61.10;98791.66;5079484;28;20036;-83
2022/04/02 06:02:43;;;;;;;6.32;4.10;;;;;;;3.27;61.42;98796.81;5080842;28;20145;-83
2022/04/02 06:05:11;;;;;;;6.80;4.40;;;;;;;3.15;61.78;98771.91;5115276;28;20036;-83
2022/04/02 06:07:37;;;;;;;7.95;4.45;;;;;;;3.21;62.07;98753.06;5079290;28;20043;-81
2022/04/02 06:10:09;;;;;;;7.03;4.65;;;;;;;3.08;61.90;98721.34;5029247;28;20053;-84
2022/04/02 06:12:40;;;;;;;6.57;4.10;;;;;;;3.51;61.57;98779.75;5026357;28;20139;-84
2022/04/02 06:15:18;;;;;;;6.25;3.47;;;;;;;3.27;61.48;98724.81;5020349;28;20064;-84
2022/04/02 06:18:08;;;;;;;5.65;3.70;;;;;;;3.46;61.67;98746.31;5036142;28;20126;-83
2022/04/02 06:20:39;;;;;;;6.93;4.20;;;;;;;3.45;61.83;98726.59;5014212;28;20129;-85
2022/04/02 06:23:06;;;;;;;6.25;4.53;;;;;;;3.79;61.58;98751.53;5004432;28;20034;-82
2022/04/02 06:25:33;;;;;;;6.28;4.20;;;;;;;3.80;61.08;98760.97;5004269;28;20471;-84
2022/04/02 06:28:02;;;;;;;5.40;3.90;;;;;;;3.56;60.86;98733.47;4989504;28;20053;-83
2022/04/02 06:30:28;;;;;;;5.35;3.80;;;;;;;3.04;61.16;98639.03;5007051;28;20046;-81
2022/04/02 06:32:55;;;;;;;5.85;3.78;;;;;;;3.68;61.35;98743.81;5009341;28;20127;-85
2022/04/02 06:35:24;;;;;;;5.72;3.75;;;;;;;3.59;60.96;98739.50;5020077;28;20096;-81
2022/04/02 06:37:53;;;;;;;5.07;3.97;;;;;;;3.64;60.88;98729.22;4977288;28;20052;-82
2022/04/02 06:40:21;;;;;;;5.45;3.42;;;;;;;3.64;61.04;98734.34;5004756;28;20045;-83
2022/04/02 06:42:56;;;;;;;6.20;4.05;;;;;;;3.53;61.64;98718.88;5007078;28;20171;-85
2022/04/02 06:45:37;;;;;;;6.85;4.30;;;;;;;3.79;61.40;98736.09;4985809;28;20057;-85
2022/04/02 06:48:04;;;;;;;6.28;3.53;;;;;;;3.64;61.52;98675.19;5011114;28;20041;-85
2022/04/02 06:50:33;;;;;;;6.28;4.30;;;;;;;3.73;60.34;98659.75;5006927;28;20034;-84
2022/04/02 06:52:59;;;;;;;5.88;4.28;;;;;;;3.63;60.79;98634.03;4987749;28;20144;-82
2022/04/02 06:55:28;;;;;;;5.45;3.65;;;;;;;4.13;60.95;98692.34;4985853;28;20029;-85
2022/04/02 06:58:01;;;;;;;4.15;3.47;;;;;;;4.19;60.70;98661.44;5002583;28;20041;-85
2022/04/02 07:00:28;;;;;;;8.07;4.40;;;;;;;4.45;60.83;98672.56;4999804;28;20033;-85
2022/04/02 07:02:57;;;;;;;5.97;4.03;;;;;;;4.31;60.79;98613.34;5013199;28;20045;-83
2022/04/02 07:05:24;;;;;;;5.45;3.97;;;;;;;4.70;59.33;98691.41;5006588;28;20053;-83
2022/04/02 07:07:58;;;;;;;4.47;3.35;;;;;;;4.16;60.18;98615.09;4977771;28;20072;-83
2022/04/02 07:10:31;;;;;;;6.20;4.00;;;;;;;4.60;60.19;98640.75;5005144;28;20137;-84
2022/04/02 07:13:00;;;;;;;8.85;4.55;;;;;;;4.14;60.08;98565.31;5020965;28;20110;-83
2022/04/02 07:15:29;;;;;;;5.20;3.72;;;;;;;4.66;60.24;98625.28;5003128;28;20037;-84
2022/04/02 07:17:55;;;;;;;6.43;4.65;;;;;;;4.89;59.88;98647.53;4992796;28;20047;-83
2022/04/02 07:20:27;;;;;;;4.97;4.05;;;;;;;5.04;60.27;98642.28;5013964;28;20038;-83
2022/04/02 07:22:59;;;;;;;5.07;3.28;;;;;;;4.79;59.67;98601.16;4997538;28;20125;-85
2022/04/02 07:25:30;;;;;;;5.95;3.92;;;;;;;4.59;59.16;98608.97;5004232;28;20041;-83
2022/04/02 07:27:57;;;;;;;5.72;3.55;;;;;;;4.75;59.42;98632.09;5019008;28;20049;-83
2022/04/02 07:30:25;;;;;;;6.35;4.05;;;;;;;4.73;59.84;98642.44;5003664;28;20044;-83
2022/04/02 07:32:52;;;;;;;6.07;4.00;;;;;;;4.60;60.45;98622.72;5032534;28;20044;-85
2022/04/02 07:35:18;;;;;;;6.68;4.43;;;;;;;4.59;60.46;98628.72;4975311;28;20094;-83
2022/04/02 07:37:58;;;;;;;4.28;3.40;;;;;;;4.83;59.85;98659.56;5005464;28;20041;-84
2022/04/02 07:40:40;;;;;;;;;;;;;;;4.84;60.01;98663.00;5021787;28;20061;-83
2022/04/02 07:43:39;;;;;;;4.93;3.75;;;;;;;4.75;59.72;98653.56;4998336;28;19927;-83
2022/04/02 07:46:24;;;;;;;5.13;3.83;;;;;;;4.57;59.97;98620.13;5034327;28;20056;-86
2022/04/02 07:48:56;;;;;;;4.80;3.63;;;;;;;4.86;60.79;98650.09;5003704;28;20503;-82
2022/04/02 07:51:38;;;;;;;5.82;3.55;;;;;;;4.80;60.04;98654.41;4989346;28;20685;-83
2022/04/02 07:54:17;;;;;;;4.82;3.35;;;;;;;4.43;60.08;98574.69;5007664;28;20689;-85
2022/04/02 07:57:02;;;;;;;7.65;3.85;;;;;;;4.38;59.87;98568.69;5000610;28;20121;-83
2022/04/02 07:59:34;;;;;;;5.65;3.33;;;;;;;4.47;59.92;98572.94;5016119;28;20045;-83
2022/04/02 08:05:02;;;;;;;4.78;3.42;;;;;;;4.80;59.34;98600.28;5008430;28;20041;-85
2022/04/02 08:07:38;;;;;;;5.95;3.70;;;;;;;4.86;59.07;98583.09;4990461;28;20045;-85
2022/04/02 08:10:10;;;;;;;4.22;3.25;;;;;;;4.79;58.17;98595.16;5010192;28;20095;-83
2022/04/02 08:12:41;;;;;;;6.20;4.22;;;;;;;4.91;58.96;98584.75;5024955;28;20106;-86
2022/04/02 08:15:13;;;;;;;5.65;3.60;;;;;;;5.11;58.66;98576.94;5008733;28;20041;-84
2022/04/02 08:17:40;;;;;;;3.97;3.15;;;;;;;5.28;57.93;98573.38;4991974;28;20524;-84
2022/04/02 08:20:10;;;;;;;4.38;3.00;;;;;;;4.88;57.05;98558.16;4994657;28;20069;-83
2022/04/02 08:22:37;;;;;;;6.60;3.10;;;;;;;4.64;58.65;98583.19;5011420;28;20037;-85
2022/04/02 08:25:04;;;;;;;4.20;3.38;;;;;;;4.28;58.49;98536.94;5008518;28;20116;-83
2022/04/02 08:27:33;;;;;;;4.95;3.30;;;;;;;4.58;57.63;98594.38;4991880;28;20132;-81
2022/04/02 08:30:03;;;;;;;6.68;3.50;;;;;;;4.05;58.41;98545.59;5009687;28;20053;-85
2022/04/02 08:32:57;;;;;;;4.28;3.00;;;;;;;4.32;58.12;98592.75;5023699;28;20045;-84
2022/04/02 08:35:33;;;;;;;4.72;3.92;;;;;;;4.65;59.60;98588.31;5021352;28;20866;-83
2022/04/02 08:38:05;;;;;;;7.05;4.05;;;;;;;4.76;58.79;98575.38;5018724;28;20033;-84
2022/04/02 08:41:05;;;;;;;5.38;3.60;;;;;;;5.00;58.85;98580.44;5003056;28;20049;-81
2022/04/02 08:44:14;;;;;;;5.57;3.30;;;;;;;4.85;59.00;98589.09;4983002;28;20041;-84
2022/04/02 08:47:01;;;;;;;5.70;3.55;;;;;;;4.55;58.44;98560.91;5074767;22;20058;-86
2022/04/02 08:49:48;;;;;;;5.15;3.33;;;;;;;4.65;59.05;98583.16;4976199;28;20038;-85
2022/04/02 08:52:14;;;;;;;4.80;3.35;;;;;;;4.49;58.35;98564.38;4991745;28;20093;-84
2022/04/02 08:54:53;;;;;;;4.95;3.08;;;;;;;4.44;58.98;98555.78;4995265;28;20042;-82
2022/04/02 08:57:32;;;;;;;5.85;3.55;;;;;;;3.97;58.34;98495.00;4985445;28;20066;-81
2022/04/02 08:59:58;;;;;;;4.53;3.33;;;;;;;4.33;58.42;98553.25;4996988;28;20914;-80
2022/04/02 09:02:52;;;;;;;5.07;3.30;;;;;;;4.42;58.85;98541.19;4983960;28;20049;-83
2022/04/02 09:05:53;;;;;;;5.03;3.40;;;;;;;4.49;58.66;98541.19;4967347;28;20046;-86
2022/04/02 09:08:35;;;;;;;4.43;3.45;;;;;;;4.32;58.64;98548.09;4955180;28;20050;-82
2022/04/02 09:11:26;;;;;;;4.75;3.38;;;;;;;4.26;58.13;98548.13;4948740;28;20193;-83
2022/04/02 09:14:08;;;;;;;4.82;3.55;;;;;;;4.32;58.98;98532.63;4964883;28;20042;-82
2022/04/02 09:17:00;;;;;;;5.70;4.00;;;;;;;4.45;58.92;98524.00;4942428;28;20421;-88
2022/04/02 09:19:54;;;;;;;5.15;3.83;;;;;;;4.36;58.95;98522.34;4949945;28;20309;-86
2022/04/02 09:22:52;;;;;;;5.57;4.20;;;;;;;4.52;59.07;98519.69;4950369;28;20066;-83
2022/04/02 09:25:37;;;;;;;5.93;4.05;;;;;;;4.68;57.42;98502.44;4965492;28;20090;-85
2022/04/02 09:28:36;;;;;;;4.75;3.40;;;;;;;4.38;58.77;98517.16;4934761;28;20042;-84
2022/04/02 09:31:30;;;;;;;5.50;4.65;;;;;;;4.29;58.42;98500.03;4952034;28;20053;-82
2022/04/02 09:34:28;;;;;;;;;;;;;;;;;;;;;
2022/04/02 09:37:47;;;;;;;5.00;3.90;;;;;;;4.91;58.57;98478.22;4952306;28;20129;-85
2022/04/02 09:40:48;;;;;;;4.40;3.47;;;;;;;5.09;57.39;98457.47;4960713;28;20039;-85
2022/04/02 09:43:38;;;;;;;5.43;3.50;;;;;;;5.11;56.84;98454.84;4951656;28;20122;-85
2022/04/02 09:46:48;;;;;;;5.90;3.55;;;;;;;4.86;56.95;98402.66;4985432;28;20102;-86
2022/04/02 09:49:42;;;;;;;4.32;3.40;;;;;;;5.25;56.97;98447.00;4935169;28;20027;-86
2022/04/02 09:52:09;;;;;;;4.10;3.03;;;;;;;5.34;56.80;98451.22;4968355;28;20039;-86
2022/04/02 09:54:43;;;;;;;4.40;3.50;;;;;;;5.20;57.61;98422.97;4960313;28;20073;-83
2022/04/02 09:57:28;;;;;;;4.47;3.47;;;;;;;5.01;56.55;98394.78;4939138;28;20078;-85
2022/04/02 10:00:08;;;;;;;4.22;3.38;;;;;;;4.50;55.14;98356.53;4951451;28;20088;-83
2022/04/02 10:03:06;;;;;;;5.65;4.13;;;;;;;4.68;56.38;98448.31;4950518;28;20047;-85
2022/04/02 10:05:46;;;;;;;4.25;3.25;;;;;;;4.54;56.82;98456.13;4946540;28;20051;-84
2022/04/02 10:08:38;;;;;;;5.60;3.15;;;;;;;4.30;57.07;98431.38;4945954;28;20043;-84
2022/04/02 10:11:08;;;;;;;5.03;4.20;;;;;;;4.03;57.09;98382.56;4959753;28;20123;-81
2022/04/02 10:13:35;;;;;;;5.90;4.38;;;;;;;4.15;56.90;98402.25;4956920;28;20730;-84
2022/04/02 10:16:15;;;;;;;5.32;3.45;;;;;;;4.13;56.13;98428.88;4951020;28;20054;-85
2022/04/02 10:18:44;;;;;;;5.88;3.95;;;;;;;4.27;57.62;98432.22;4948856;28;20102;-83
2022/04/02 10:21:20;;;;;;;7.72;4.82;;;;;;;3.55;56.42;98313.31;4980602;28;20043;-87
2022/04/02 10:23:52;;;;;;;5.70;3.60;;;;;;;3.44;57.09;98309.91;4956829;28;20043;-85
2022/04/02 10:26:22;;;;;;;4.95;3.70;;;;;;;3.41;57.08;98291.97;4941997;28;20046;-83
2022/04/02 10:29:09;;;;;;;6.30;3.60;;;;;;;3.84;57.86;98361.22;4948565;28;20494;-86
2022/04/02 10:31:49;;;;;;;4.28;3.33;;;;;;;4.20;57.06;98409.94;4942285;28;20118;-86
2022/04/02 10:37:37;;;;;;;4.10;3.40;;;;;;;4.21;57.99;98371.31;4933331;28;20058;-88
2022/04/02 10:40:06;;;;;;;5.05;3.80;;;;;;;4.11;57.30;98361.09;4965791;28;20086;-85
2022/04/02 10:42:50;;;;;;;7.35;4.60;;;;;;;3.92;57.43;98332.88;4964913;28;20482;-85
2022/04/02 10:45:19;;;;;;;7.88;3.80;;;;;;;4.41;57.90;98411.53;4932546;28;20089;-84
2022/04/02 10:47:57;;;;;;;6.28;3.85;;;;;;;3.81;57.61;98327.78;4959711;28;20116;-85
2022/04/02 10:50:24;;;;;;;7.53;4.22;;;;;;;4.05;58.01;98375.69;4970356;28;20046;-86
2022/04/02 10:53:04;;;;;;;5.45;3.83;;;;;;;3.90;58.15;98388.66;4968308;28;20141;-87
2022/04/02 10:55:45;;;;;;;5.68;4.18;;;;;;;3.96;58.35;98400.63;4986272;28;20050;-87
2022/04/02 10:58:44;;;;;;;5.25;3.70;;;;;;;3.61;58.36;98375.03;4969389;28;20492;-87
2022/04/02 11:01:18;;;;;;;5.95;3.78;;;;;;;3.64;58.81;98435.91;4972773;28;20066;-84
2022/04/02 11:03:53;;;;;;;5.25;3.78;;;;;;;3.33;59.25;98370.84;4963068;28;20085;-88
2022/04/02 11:06:49;;;;;;;5.65;4.28;;;;;;;3.67;59.79;98450.47;4958633;28;20046;-88
2022/04/02 11:10:13;;;;;;;5.93;4.13;;;;;;;2.82;59.54;98338.34;4977733;28;20053;-87
2022/04/02 11:13:04;;;;;;;6.78;4.55;;;;;;;2.32;60.17;98330.63;4910991;28;20142;-86
2022/04/02 11:15:44;;;;;;;5.70;4.47;;;;;;;2.70;60.17;98388.88;4950340;28;20122;-85
2022/04/02 11:23:02;;;;;;;7.80;5.90;;;;;;;3.40;60.83;98467.69;4968597;28;20042;-87
2022/04/02 11:26:08;;;;;;;6.15;4.80;;;;;;;2.70;60.76;98378.63;4994864;28;20285;-87
2022/04/02 11:28:52;;;;;;;5.95;4.30;;;;;;;2.19;61.00;98328.91;4926132;28;20079;-88
2022/04/02 11:31:30;;;;;;;5.82;4.60;;;;;;;2.18;62.42;98351.19;4970544;28;20687;-86
2022/04/02 11:34:10;;;;;;;5.78;4.07;;;;;;;2.66;61.86;98424.81;4958266;28;20560;-86
2022/04/02 11:36:57;;;;;;;5.38;4.13;;;;;;;2.84;62.85;98422.28;4996795;28;20038;-86
2022/04/02 11:39:58;;;;;;;5.75;4.63;;;;;;;2.55;62.70;98360.59;4961395;28;20157;-88
2022/04/02 11:42:38;;;;;;;8.30;5.55;;;;;;;2.48;62.89;98310.13;4977160;28;20046;-87
2022/04/02 11:45:16;;;;;;;7.47;5.28;;;;;;;2.93;63.13;98364.91;4943545;28;20098;-87
2022/04/02 11:48:10;;;;;;;7.30;5.53;;;;;;;3.52;63.08;98421.34;4955285;28;20174;-85
2022/04/02 11:51:52;;;;;;;8.13;6.10;;;;;;;2.93;62.78;98328.94;4946711;28;20119;-86
2022/04/02 11:54:35;;;;;;;;;;;;;;;;;;;;;
2022/04/02 12:02:24;;;;;;;7.30;5.05;;;;;;;3.44;62.59;98356.22;4933616;28;20102;-88
2022/04/02 12:15:36;;;;;;;9.38;6.35;;;;;;;2.68;63.36;98220.19;1324242;26;20318;-85
2022/04/02 12:22:48;;;;;;;5.75;4.63;;;;;;;2.74;63.03;98188.53;4999047;28;20140;-84
2022/04/02 12:25:24;;;;;;;7.65;5.32;;;;;;;2.76;63.05;98186.81;4990331;28;20038;-85
2022/04/02 12:27:54;;;;;;;6.68;4.90;;;;;;;2.72;63.31;98214.19;4993147;28;20094;-84
2022/04/02 12:30:23;;;;;;;7.63;5.40;;;;;;;3.04;63.21;98253.50;4990631;28;20058;-85
2022/04/02 12:32:51;;;;;;;6.80;4.93;;;;;;;3.05;63.83;98220.09;4992325;28;20038;-84
2022/04/02 12:35:26;;;;;;;6.32;4.50;;;;;;;2.58;64.21;98123.50;4954847;28;20416;-86
2022/04/02 12:38:07;;;;;;;7.05;4.93;;;;;;;3.18;64.05;98215.78;4988783;28;20046;-86
2022/04/02 12:40:49;;;;;;;6.78;4.13;;;;;;;3.21;64.31;98200.31;4966471;28;20196;-86
2022/04/02 12:43:40;;;;;;;5.75;4.22;;;;;;;2.96;63.54;98159.31;4953856;28;20046;-84
2022/04/02 12:47:11;;;;;;;5.78;4.22;;;;;;;3.31;63.44;98237.13;4945179;28;20050;-83
2022/04/02 12:49:42;;;;;;;5.35;4.47;;;;;;;3.22;64.07;98240.56;4972873;28;20105;-84
2022/04/02 12:52:20;;;;;;;6.50;4.68;;;;;;;2.69;63.92;98153.41;4969932;28;20050;-86